Time;durP1;ratioP1;P1;durP2;ratioP2;P2;SDS_P1;SDS_P2;PMS_P1;PMS_P2;Temp;Humidity;BMP_temperature;BMP_pressure;BME280_temperature;BME280_humidity;BME280_pressure;Samples;Min_cycle;Max_cycle;Signal;HPM_P1;HPM_P2
2021/09/12 00:00:22;;;;;;;;;;;;;;;;;;5037902;28;20002;-69
2021/09/12 00:02:49;;;;;;;;;;;;;;;;;;5039140;28;20008;-68
2021/09/12 00:05:16;;;;;;;;;;;;;;;;;;5039009;28;20002;-69
2021/09/12 00:07:43;;;;;;;;;;;;;;;;;;5040508;28;20008;-69
2021/09/12 00:10:10;;;;;;;;;;;;;;;;;;5033298;28;20002;-68
2021/09/12 00:12:38;;;;;;;;;;;;;;;;;;5032991;28;20029;-69
2021/09/12 00:15:05;;;;;;;;;;;;;;;;;;5033166;28;20053;-70
2021/09/12 00:17:32;;;;;;;;;;;;;;;;;;5033304;28;20009;-70
2021/09/12 00:19:59;;;;;;;;;;;;;;;;;;5032853;28;20367;-70
2021/09/12 00:22:25;;;;;;;;;;;;;;;;;;5033059;28;20025;-69
2021/09/12 00:24:52;;;;;;;;;;;;;;;;;;5032485;28;20002;-70
2021/09/12 00:27:19;;;;;;;;;;;;;;;;;;5032868;28;20461;-69
2021/09/12 00:29:46;;;;;;;;;;;;;;;;;;5033064;28;20002;-69
2021/09/12 00:32:13;;;;;;;;;;;;;;;;;;5032545;28;20022;-69
2021/09/12 00:34:40;;;;;;;;;;;;;;;;;;5032560;28;20009;-69
2021/09/12 00:37:07;;;;;;;;;;;;;;;;;;5032459;28;20005;-69
2021/09/12 00:39:34;;;;;;;;;;;;;;;;;;5032251;28;20001;-69
2021/09/12 00:42:01;;;;;;;;;;;;;;;;;;5032253;28;20017;-69
2021/09/12 00:44:28;;;;;;;;;;;;;;;;;;5032844;28;20002;-69
2021/09/12 00:46:55;;;;;;;;;;;;;;;;;;5032202;28;20014;-69
2021/09/12 00:49:21;;;;;;;;;;;;;;;;;;5032249;28;20001;-69
2021/09/12 00:51:49;;;;;;;;;;;;;;;;;;5032007;28;20041;-69
2021/09/12 00:54:16;;;;;;;;;;;;;;;;;;5032268;28;20009;-69
2021/09/12 00:56:43;;;;;;;;;;;;;;;;;;5032222;28;20002;-69
2021/09/12 00:59:10;;;;;;;;;;;;;;;;;;5032254;28;20385;-69
2021/09/12 01:01:36;;;;;;;;;;;;;;;;;;5031515;28;20171;-69
2021/09/12 01:04:03;;;;;;;;;;;;;;;;;;5032286;28;20002;-69
2021/09/12 01:06:30;;;;;;;;;;;;;;;;;;5032104;28;20472;-69
2021/09/12 01:08:57;;;;;;;;;;;;;;;;;;5032127;28;20006;-69
2021/09/12 01:11:24;;;;;;;;;;;;;;;;;;5031784;28;20025;-70
2021/09/12 01:13:51;;;;;;;;;;;;;;;;;;5031966;28;20361;-69
2021/09/12 01:16:18;;;;;;;;;;;;;;;;;;5032571;28;20009;-68
2021/09/12 01:18:45;;;;;;;;;;;;;;;;;;5032155;28;20002;-70
2021/09/12 01:21:12;;;;;;;;;;;;;;;;;;5032017;28;20311;-69
2021/09/12 01:23:39;;;;;;;;;;;;;;;;;;5035713;28;20002;-69
2021/09/12 01:26:06;;;;;;;;;;;;;;;;;;5036108;28;20453;-69
2021/09/12 01:28:32;;;;;;;;;;;;;;;;;;5036349;28;20009;-69
2021/09/12 01:31:00;;;;;;;;;;;;;;;;;;5036034;28;20037;-70
2021/09/12 01:33:27;;;;;;;;;;;;;;;;;;5038805;28;20006;-69
2021/09/12 01:35:54;;;;;;;;;;;;;;;;;;5038407;28;20002;-70
2021/09/12 01:38:21;;;;;;;;;;;;;;;;;;5038288;28;20009;-69
2021/09/12 01:40:48;;;;;;;;;;;;;;;;;;5038701;28;20018;-69
2021/09/12 01:43:15;;;;;;;;;;;;;;;;;;5038446;28;20008;-69
2021/09/12 01:45:41;;;;;;;;;;;;;;;;;;5036041;28;20002;-69
2021/09/12 01:48:08;;;;;;;;;;;;;;;;;;5034903;28;20002;-69
2021/09/12 01:50:35;;;;;;;;;;;;;;;;;;5035663;28;20024;-69
2021/09/12 01:53:02;;;;;;;;;;;;;;;;;;5035269;28;20024;-69
2021/09/12 01:55:29;;;;;;;;;;;;;;;;;;5034906;28;20006;-69
2021/09/12 01:57:56;;;;;;;;;;;;;;;;;;5035205;28;20009;-70
2021/09/12 02:00:23;;;;;;;;;;;;;;;;;;5034721;28;20354;-69
2021/09/12 02:02:50;;;;;;;;;;;;;;;;;;5034875;28;20009;-70
2021/09/12 02:05:17;;;;;;;;;;;;;;;;;;5035261;28;20002;-69
2021/09/12 02:07:44;;;;;;;;;;;;;;;;;;5034922;28;20006;-69
2021/09/12 02:10:11;;;;;;;;;;;;;;;;;;5034561;28;20002;-69
2021/09/12 02:12:37;;;;;;;;;;;;;;;;;;5034939;28;20418;-69
2021/09/12 02:15:04;;;;;;;;;;;;;;;;;;5034959;28;20002;-69
2021/09/12 02:17:31;;;;;;;;;;;;;;;;;;5034819;28;20002;-69
2021/09/12 02:19:58;;;;;;;;;;;;;;;;;;5034735;28;20489;-69
2021/09/12 02:22:25;;;;;;;;;;;;;;;;;;5034468;28;20018;-70
2021/09/12 02:24:52;;;;;;;;;;;;;;;;;;5034575;28;20009;-69
2021/09/12 02:27:19;;;;;;;;;;;;;;;;;;5034585;28;20002;-69
2021/09/12 02:29:46;;;;;;;;;;;;;;;;;;5034577;28;20001;-69
2021/09/12 02:32:14;;;;;;;;;;;;;;;;;;5034312;28;20500;-69
2021/09/12 02:34:41;;;;;;;;;;;;;;;;;;5033239;28;20385;-70
2021/09/12 02:37:08;;;;;;;;;;;;;;;;;;5034843;28;20010;-69
2021/09/12 02:39:35;;;;;;;;;;;;;;;;;;5034543;28;20009;-69
2021/09/12 02:42:02;;;;;;;;;;;;;;;;;;5034089;28;20018;-68
2021/09/12 02:44:29;;;;;;;;;;;;;;;;;;5034459;28;20009;-69
2021/09/12 02:46:56;;;;;;;;;;;;;;;;;;5034534;28;20002;-69
2021/09/12 02:49:22;;;;;;;;;;;;;;;;;;5034291;28;20009;-69
2021/09/12 02:51:49;;;;;;;;;;;;;;;;;;5034017;28;20022;-69
2021/09/12 02:54:16;;;;;;;;;;;;;;;;;;5034038;28;20484;-69
2021/09/12 02:56:43;;;;;;;;;;;;;;;;;;5033834;28;20002;-70
2021/09/12 02:59:10;;;;;;;;;;;;;;;;;;5034003;28;20027;-69
2021/09/12 03:01:37;;;;;;;;;;;;;;;;;;5033720;28;20022;-69
2021/09/12 03:04:04;;;;;;;;;;;;;;;;;;5034112;28;20009;-69
2021/09/12 03:06:31;;;;;;;;;;;;;;;;;;5033733;28;20342;-69
2021/09/12 03:08:58;;;;;;;;;;;;;;;;;;5033977;28;20002;-70
2021/09/12 03:11:25;;;;;;;;;;;;;;;;;;5033381;28;20018;-69
2021/09/12 03:13:51;;;;;;;;;;;;;;;;;;5033622;28;20013;-69
2021/09/12 03:16:18;;;;;;;;;;;;;;;;;;5033754;28;20006;-69
2021/09/12 03:18:45;;;;;;;;;;;;;;;;;;5033353;28;20477;-69
2021/09/12 03:21:12;;;;;;;;;;;;;;;;;;5033274;28;20546;-69
2021/09/12 03:23:39;;;;;;;;;;;;;;;;;;5033817;28;20001;-69
2021/09/12 03:26:06;;;;;;;;;;;;;;;;;;5033669;28;20002;-69
2021/09/12 03:28:33;;;;;;;;;;;;;;;;;;5033603;28;20002;-69
2021/09/12 03:31:00;;;;;;;;;;;;;;;;;;5033768;28;20025;-69
2021/09/12 03:33:27;;;;;;;;;;;;;;;;;;5033256;28;20473;-68
2021/09/12 03:35:54;;;;;;;;;;;;;;;;;;5033649;28;20002;-69
2021/09/12 03:38:21;;;;;;;;;;;;;;;;;;5033378;28;20001;-69
2021/09/12 03:40:47;;;;;;;;;;;;;;;;;;5032814;28;20025;-69
2021/09/12 03:43:14;;;;;;;;;;;;;;;;;;5033409;28;20013;-69
2021/09/12 03:45:41;;;;;;;;;;;;;;;;;;5032884;28;20458;-69
2021/09/12 03:48:08;;;;;;;;;;;;;;;;;;5033194;28;20009;-69
2021/09/12 03:50:35;;;;;;;;;;;;;;;;;;5032774;28;20018;-68
2021/09/12 03:53:02;;;;;;;;;;;;;;;;;;5032938;28;20021;-70
2021/09/12 03:55:29;;;;;;;;;;;;;;;;;;5033113;28;20006;-69
2021/09/12 03:57:56;;;;;;;;;;;;;;;;;;5032639;28;20481;-69
2021/09/12 04:00:23;;;;;;;;;;;;;;;;;;5032586;28;20002;-70
2021/09/12 04:02:50;;;;;;;;;;;;;;;;;;5032875;28;20362;-69
2021/09/12 04:05:16;;;;;;;;;;;;;;;;;;5033074;28;20005;-69
2021/09/12 04:07:43;;;;;;;;;;;;;;;;;;5032696;28;20001;-69
2021/09/12 04:10:10;;;;;;;;;;;;;;;;;;5032392;28;20009;-69
2021/09/12 04:12:37;;;;;;;;;;;;;;;;;;5032653;28;20018;-67
2021/09/12 04:15:04;;;;;;;;;;;;;;;;;;5033069;28;20009;-67
2021/09/12 04:17:31;;;;;;;;;;;;;;;;;;5032647;28;20002;-67
2021/09/12 04:19:58;;;;;;;;;;;;;;;;;;5032596;28;20001;-67
2021/09/12 04:22:25;;;;;;;;;;;;;;;;;;5032857;28;20382;-67
2021/09/12 04:24:52;;;;;;;;;;;;;;;;;;5033152;28;20008;-66
2021/09/12 04:27:19;;;;;;;;;;;;;;;;;;5032538;28;20006;-67
2021/09/12 04:29:46;;;;;;;;;;;;;;;;;;5032725;28;20491;-67
2021/09/12 04:32:12;;;;;;;;;;;;;;;;;;5032397;28;20017;-67
2021/09/12 04:34:39;;;;;;;;;;;;;;;;;;5032930;28;20005;-67
2021/09/12 04:37:06;;;;;;;;;;;;;;;;;;5032521;28;20480;-67
2021/09/12 04:39:33;;;;;;;;;;;;;;;;;;5032830;28;20002;-67
2021/09/12 04:42:00;;;;;;;;;;;;;;;;;;5032462;28;20018;-66
2021/09/12 04:44:27;;;;;;;;;;;;;;;;;;5032512;28;20009;-67
2021/09/12 04:46:54;;;;;;;;;;;;;;;;;;5032418;28;20002;-67
2021/09/12 04:49:21;;;;;;;;;;;;;;;;;;5032379;28;20372;-67
2021/09/12 04:51:48;;;;;;;;;;;;;;;;;;5032249;28;20018;-67
2021/09/12 04:54:15;;;;;;;;;;;;;;;;;;5032563;28;20010;-67
2021/09/12 04:56:42;;;;;;;;;;;;;;;;;;5032247;28;20483;-67
2021/09/12 04:59:08;;;;;;;;;;;;;;;;;;5036490;28;20001;-67
2021/09/12 05:01:36;;;;;;;;;;;;;;;;;;5036211;28;20021;-67
2021/09/12 05:04:03;;;;;;;;;;;;;;;;;;5036360;28;20013;-67
2021/09/12 05:06:30;;;;;;;;;;;;;;;;;;5036433;28;20002;-67
2021/09/12 05:08:57;;;;;;;;;;;;;;;;;;5036017;28;20009;-67
2021/09/12 05:11:24;;;;;;;;;;;;;;;;;;5035971;28;20017;-67
2021/09/12 05:13:51;;;;;;;;;;;;;;;;;;5036394;28;20018;-69
2021/09/12 05:16:18;;;;;;;;;;;;;;;;;;5037354;28;20001;-67
2021/09/12 05:18:45;;;;;;;;;;;;;;;;;;5035722;28;20009;-67
2021/09/12 05:21:12;;;;;;;;;;;;;;;;;;5035820;28;20493;-67
2021/09/12 05:23:39;;;;;;;;;;;;;;;;;;5036527;28;20009;-70
2021/09/12 05:26:06;;;;;;;;;;;;;;;;;;5037084;28;20002;-69
2021/09/12 05:28:34;;;;;;;;;;;;;;;;;;5036110;28;20479;-70
2021/09/12 05:31:00;;;;;;;;;;;;;;;;;;5035768;28;20022;-70
2021/09/12 05:33:29;;;;;;;;;;;;;;;;;;5035618;28;20014;-67
2021/09/12 05:35:56;;;;;;;;;;;;;;;;;;5036184;28;20016;-66
2021/09/12 05:38:23;;;;;;;;;;;;;;;;;;5035756;28;20374;-67
2021/09/12 05:40:50;;;;;;;;;;;;;;;;;;5035670;28;20055;-67
2021/09/12 05:43:17;;;;;;;;;;;;;;;;;;5035794;28;20002;-67
2021/09/12 05:45:44;;;;;;;;;;;;;;;;;;5035496;28;20449;-67
2021/09/12 05:48:11;;;;;;;;;;;;;;;;;;5036293;28;20010;-66
2021/09/12 05:50:38;;;;;;;;;;;;;;;;;;5035398;28;20018;-66
2021/09/12 05:53:05;;;;;;;;;;;;;;;;;;5035280;28;20025;-66
2021/09/12 05:55:31;;;;;;;;;;;;;;;;;;5036061;28;20083;-66
2021/09/12 05:57:58;;;;;;;;;;;;;;;;;;5035671;28;20001;-69
2021/09/12 06:00:25;;;;;;;;;;;;;;;;;;5034670;28;20009;-69
2021/09/12 06:02:52;;;;;;;;;;;;;;;;;;5035964;28;20001;-69
2021/09/12 06:05:19;;;;;;;;;;;;;;;;;;5035272;28;20453;-69
2021/09/12 06:07:46;;;;;;;;;;;;;;;;;;5034904;28;20002;-68
2021/09/12 06:10:13;;;;;;;;;;;;;;;;;;5034839;28;20002;-66
2021/09/12 06:12:40;;;;;;;;;;;;;;;;;;5035041;28;20301;-66
2021/09/12 06:15:07;;;;;;;;;;;;;;;;;;5035734;28;20008;-66
2021/09/12 06:17:34;;;;;;;;;;;;;;;;;;5035397;28;20078;-66
2021/09/12 06:20:01;;;;;;;;;;;;;;;;;;5035081;28;20006;-66
2021/09/12 06:22:27;;;;;;;;;;;;;;;;;;5034627;28;20017;-66
2021/09/12 06:24:54;;;;;;;;;;;;;;;;;;5034884;28;20354;-67
2021/09/12 06:27:21;;;;;;;;;;;;;;;;;;5034648;28;20001;-66
2021/09/12 06:29:48;;;;;;;;;;;;;;;;;;5035010;28;20295;-66
2021/09/12 06:32:15;;;;;;;;;;;;;;;;;;5034118;28;20018;-66
2021/09/12 06:34:42;;;;;;;;;;;;;;;;;;5034810;28;20009;-66
2021/09/12 06:37:09;;;;;;;;;;;;;;;;;;5034641;28;20063;-67
2021/09/12 06:39:36;;;;;;;;;;;;;;;;;;5034922;28;20002;-66
2021/09/12 06:42:03;;;;;;;;;;;;;;;;;;5033824;28;20021;-67
2021/09/12 06:44:30;;;;;;;;;;;;;;;;;;5034738;28;20006;-66
2021/09/12 06:46:57;;;;;;;;;;;;;;;;;;5034669;28;20136;-66
2021/09/12 06:49:23;;;;;;;;;;;;;;;;;;5034623;28;20002;-66
2021/09/12 06:51:50;;;;;;;;;;;;;;;;;;5034405;28;20018;-68
2021/09/12 06:54:17;;;;;;;;;;;;;;;;;;5034317;28;20351;-67
2021/09/12 06:56:44;;;;;;;;;;;;;;;;;;5034413;28;20051;-67
2021/09/12 06:59:11;;;;;;;;;;;;;;;;;;5034578;28;20006;-67
2021/09/12 07:01:38;;;;;;;;;;;;;;;;;;5034313;28;20497;-66
2021/09/12 07:04:05;;;;;;;;;;;;;;;;;;5034570;28;20001;-67
2021/09/12 07:06:32;;;;;;;;;;;;;;;;;;5034440;28;20002;-66
2021/09/12 07:08:59;;;;;;;;;;;;;;;;;;5034372;28;20002;-66
2021/09/12 07:11:26;;;;;;;;;;;;;;;;;;5034198;28;20025;-67
2021/09/12 07:13:53;;;;;;;;;;;;;;;;;;5033874;28;20389;-67
2021/09/12 07:16:19;;;;;;;;;;;;;;;;;;5034542;28;20009;-67
2021/09/12 07:18:46;;;;;;;;;;;;;;;;;;5034678;28;20002;-66
2021/09/12 07:21:13;;;;;;;;;;;;;;;;;;5033221;28;20017;-66
2021/09/12 07:23:40;;;;;;;;;;;;;;;;;;5033846;28;20009;-66
2021/09/12 07:26:07;;;;;;;;;;;;;;;;;;5033881;28;20343;-66
2021/09/12 07:28:34;;;;;;;;;;;;;;;;;;5033727;28;20001;-67
2021/09/12 07:31:01;;;;;;;;;;;;;;;;;;5033655;28;20045;-66
2021/09/12 07:33:28;;;;;;;;;;;;;;;;;;5033481;28;20014;-67
2021/09/12 07:35:55;;;;;;;;;;;;;;;;;;5033959;28;20480;-66
2021/09/12 07:38:22;;;;;;;;;;;;;;;;;;5034136;28;20013;-67
2021/09/12 07:40:49;;;;;;;;;;;;;;;;;;5033929;28;20017;-67
2021/09/12 07:43:16;;;;;;;;;;;;;;;;;;5033521;28;20024;-66
2021/09/12 07:45:43;;;;;;;;;;;;;;;;;;5033584;28;20453;-66
2021/09/12 07:48:10;;;;;;;;;;;;;;;;;;5033784;28;20010;-67
2021/09/12 07:50:37;;;;;;;;;;;;;;;;;;5032730;28;20025;-67
2021/09/12 07:53:03;;;;;;;;;;;;;;;;;;5033065;28;20018;-67
2021/09/12 07:55:30;;;;;;;;;;;;;;;;;;5033734;28;20002;-67
2021/09/12 07:57:57;;;;;;;;;;;;;;;;;;5033217;28;20378;-67
2021/09/12 08:00:24;;;;;;;;;;;;;;;;;;5032881;28;20001;-66
2021/09/12 08:02:51;;;;;;;;;;;;;;;;;;5033011;28;20013;-67
2021/09/12 08:05:18;;;;;;;;;;;;;;;;;;5033179;28;20002;-66
2021/09/12 08:07:45;;;;;;;;;;;;;;;;;;5033118;28;20009;-69
2021/09/12 08:10:12;;;;;;;;;;;;;;;;;;5032784;28;20395;-71
2021/09/12 08:12:39;;;;;;;;;;;;;;;;;;5033575;28;20009;-69
2021/09/12 08:15:06;;;;;;;;;;;;;;;;;;5033532;28;20018;-68
2021/09/12 08:17:32;;;;;;;;;;;;;;;;;;5032560;28;20470;-68
2021/09/12 08:19:59;;;;;;;;;;;;;;;;;;5032680;28;20013;-68
2021/09/12 08:22:26;;;;;;;;;;;;;;;;;;5032617;28;20018;-68
2021/09/12 08:24:53;;;;;;;;;;;;;;;;;;5032866;28;20002;-69
2021/09/12 08:27:20;;;;;;;;;;;;;;;;;;5032614;28;20002;-68
2021/09/12 08:29:47;;;;;;;;;;;;;;;;;;5033005;28;20361;-69
2021/09/12 08:32:14;;;;;;;;;;;;;;;;;;5031222;28;20018;-67
2021/09/12 08:34:41;;;;;;;;;;;;;;;;;;5033156;28;20014;-66
2021/09/12 08:37:08;;;;;;;;;;;;;;;;;;5034002;28;20495;-67
2021/09/12 08:39:35;;;;;;;;;;;;;;;;;;5033113;28;20032;-66
2021/09/12 08:42:02;;;;;;;;;;;;;;;;;;5032616;28;20021;-67
2021/09/12 08:44:29;;;;;;;;;;;;;;;;;;5033097;28;20009;-68
2021/09/12 08:46:56;;;;;;;;;;;;;;;;;;5032888;28;20390;-67
2021/09/12 08:49:22;;;;;;;;;;;;;;;;;;5033285;28;20002;-67
2021/09/12 08:51:49;;;;;;;;;;;;;;;;;;5032881;28;20018;-67
2021/09/12 08:54:16;;;;;;;;;;;;;;;;;;5033296;28;20018;-67
2021/09/12 08:56:43;;;;;;;;;;;;;;;;;;5032921;28;20002;-66
2021/09/12 08:59:10;;;;;;;;;;;;;;;;;;5033217;28;20001;-69
2021/09/12 09:01:37;;;;;;;;;;;;;;;;;;5032077;28;20029;-68
2021/09/12 09:04:04;;;;;;;;;;;;;;;;;;5032685;28;20465;-69
2021/09/12 09:06:31;;;;;;;;;;;;;;;;;;5032251;28;20009;-68
2021/09/12 09:08:59;;;;;;;;;;;;;;;;;;5033395;28;20002;-69
2021/09/12 09:11:26;;;;;;;;;;;;;;;;;;5033650;28;20069;-69
2021/09/12 09:13:53;;;;;;;;;;;;;;;;;;5032781;28;20477;-69
2021/09/12 09:16:20;;;;;;;;;;;;;;;;;;5033140;28;20009;-69
2021/09/12 09:18:47;;;;;;;;;;;;;;;;;;5034690;28;20745;-69
2021/09/12 09:21:14;;;;;;;;;;;;;;;;;;5037482;28;20018;-70
2021/09/12 09:23:41;;;;;;;;;;;;;;;;;;5037172;28;20009;-69
2021/09/12 09:26:08;;;;;;;;;;;;;;;;;;5035716;28;20002;-70
2021/09/12 09:28:35;;;;;;;;;;;;;;;;;;5038283;28;20002;-69
2021/09/12 09:31:03;;;;;;;;;;;;;;;;;;5036858;28;20282;-69
2021/09/12 09:33:30;;;;;;;;;;;;;;;;;;5032071;28;20497;-68
2021/09/12 09:35:57;;;;;;;;;;;;;;;;;;5032497;28;20009;-69
2021/09/12 09:38:23;;;;;;;;;;;;;;;;;;5032182;28;20001;-68
2021/09/12 09:40:50;;;;;;;;;;;;;;;;;;5032125;28;20025;-70
2021/09/12 09:43:17;;;;;;;;;;;;;;;;;;5033680;28;20001;-68
2021/09/12 09:45:44;;;;;;;;;;;;;;;;;;5037606;28;20369;-69
2021/09/12 09:48:11;;;;;;;;;;;;;;;;;;5037105;28;20002;-68
2021/09/12 09:50:38;;;;;;;;;;;;;;;;;;5038482;28;20025;-68
2021/09/12 09:53:05;;;;;;;;;;;;;;;;;;5036803;28;20002;-69
2021/09/12 09:55:32;;;;;;;;;;;;;;;;;;5037689;28;20017;-69
2021/09/12 09:57:59;;;;;;;;;;;;;;;;;;5038080;28;20385;-69
2021/09/12 10:00:26;;;;;;;;;;;;;;;;;;5039474;28;20008;-69
2021/09/12 10:02:53;;;;;;;;;;;;;;;;;;5041064;28;20002;-69
2021/09/12 10:05:20;;;;;;;;;;;;;;;;;;5041870;28;20024;-69
2021/09/12 10:07:47;;;;;;;;;;;;;;;;;;5035267;28;20002;-69
2021/09/12 10:10:14;;;;;;;;;;;;;;;;;;5035097;28;20009;-68
2021/09/12 10:12:41;;;;;;;;;;;;;;;;;;5035667;28;20454;-70
2021/09/12 10:15:08;;;;;;;;;;;;;;;;;;5035461;28;20054;-68
2021/09/12 10:17:35;;;;;;;;;;;;;;;;;;5035524;28;20024;-69
2021/09/12 10:20:02;;;;;;;;;;;;;;;;;;5035503;28;20010;-69
2021/09/12 10:22:29;;;;;;;;;;;;;;;;;;5035540;28;20022;-69
2021/09/12 10:24:56;;;;;;;;;;;;;;;;;;5035705;28;20480;-69
2021/09/12 10:27:23;;;;;;;;;;;;;;;;;;5035387;28;20002;-68
2021/09/12 10:29:52;;;;;;;;;;;;;;;;;;5036060;28;20002;-68
2021/09/12 10:32:19;;;;;;;;;;;;;;;;;;5035384;28;20440;-69
2021/09/12 10:34:45;;;;;;;;;;;;;;;;;;5035768;28;20021;-70
2021/09/12 10:37:12;;;;;;;;;;;;;;;;;;5037423;28;20001;-69
2021/09/12 10:39:39;;;;;;;;;;;;;;;;;;5036946;28;20164;-68
2021/09/12 10:42:06;;;;;;;;;;;;;;;;;;5036136;28;20017;-68
2021/09/12 10:44:33;;;;;;;;;;;;;;;;;;5037220;28;20005;-68
2021/09/12 10:47:00;;;;;;;;;;;;;;;;;;5036285;28;20006;-69
2021/09/12 10:49:27;;;;;;;;;;;;;;;;;;5035652;28;20009;-68
2021/09/12 10:51:54;;;;;;;;;;;;;;;;;;5034171;28;20535;-69
2021/09/12 10:54:21;;;;;;;;;;;;;;;;;;5033853;28;20022;-68
2021/09/12 10:56:48;;;;;;;;;;;;;;;;;;5034242;28;20266;-68
2021/09/12 10:59:15;;;;;;;;;;;;;;;;;;5034445;28;20001;-68
2021/09/12 11:01:42;;;;;;;;;;;;;;;;;;5034042;28;20021;-69
2021/09/12 11:04:09;;;;;;;;;;;;;;;;;;5034182;28;20056;-68
2021/09/12 11:06:36;;;;;;;;;;;;;;;;;;5034197;28;20002;-68
2021/09/12 11:09:03;;;;;;;;;;;;;;;;;;5033939;28;20449;-69
2021/09/12 11:11:29;;;;;;;;;;;;;;;;;;5033909;28;20021;-68
2021/09/12 11:13:56;;;;;;;;;;;;;;;;;;5034308;28;20024;-69
2021/09/12 11:16:23;;;;;;;;;;;;;;;;;;5033681;28;20006;-68
2021/09/12 11:18:51;;;;;;;;;;;;;;;;;;5033606;28;20009;-67
2021/09/12 11:21:18;;;;;;;;;;;;;;;;;;5033408;28;20071;-68
2021/09/12 11:23:45;;;;;;;;;;;;;;;;;;5033801;28;20404;-68
2021/09/12 11:26:12;;;;;;;;;;;;;;;;;;5034010;28;20002;-68
2021/09/12 11:28:39;;;;;;;;;;;;;;;;;;5033478;28;20008;-69
2021/09/12 11:31:06;;;;;;;;;;;;;;;;;;5033235;28;20018;-68
2021/09/12 11:33:32;;;;;;;;;;;;;;;;;;5033752;28;20009;-68
2021/09/12 11:35:59;;;;;;;;;;;;;;;;;;5033547;28;20390;-68
2021/09/12 11:38:26;;;;;;;;;;;;;;;;;;5033749;28;20060;-68
2021/09/12 11:40:53;;;;;;;;;;;;;;;;;;5033603;28;20017;-68
2021/09/12 11:43:21;;;;;;;;;;;;;;;;;;5033517;28;20010;-68
2021/09/12 11:45:48;;;;;;;;;;;;;;;;;;5033543;28;20002;-68
2021/09/12 11:48:15;;;;;;;;;;;;;;;;;;5033325;28;20002;-68
2021/09/12 11:50:42;;;;;;;;;;;;;;;;;;5033703;28;20025;-67
2021/09/12 11:53:09;;;;;;;;;;;;;;;;;;5033368;28;20002;-69
2021/09/12 11:55:40;;;;;;;;;;;;;;;;;;5033701;28;20405;-68
2021/09/12 11:58:08;;;;;;;;;;;;;;;;;;5033394;28;20101;-69
2021/09/12 12:00:35;;;;;;;;;;;;;;;;;;5032818;28;20028;-68
2021/09/12 12:03:02;;;;;;;;;;;;;;;;;;5056673;22;21910;-65
2021/09/12 12:05:28;;;;;;;;;;;;;;;;;;5027788;28;19994;-66
2021/09/12 12:07:55;;;;;;;;;;;;;;;;;;5041082;28;20472;-66
2021/09/12 12:10:22;;;;;;;;;;;;;;;;;;5052109;28;20005;-66
2021/09/12 12:12:49;;;;;;;;;;;;;;;;;;5052497;28;20001;-66
2021/09/12 12:15:18;;;;;;;;;;;;;;;;;;5051979;28;20025;-64
2021/09/12 12:17:45;;;;;;;;;;;;;;;;;;5052524;28;20005;-64
2021/09/12 12:20:12;;;;;;;;;;;;;;;;;;5052244;28;20002;-65
2021/09/12 12:22:38;;;;;;;;;;;;;;;;;;5052363;28;20009;-64
2021/09/12 12:25:05;;;;;;;;;;;;;;;;;;5052600;28;20356;-64
2021/09/12 12:27:32;;;;;;;;;;;;;;;;;;5052115;28;20491;-64
2021/09/12 12:29:59;;;;;;;;;;;;;;;;;;5051931;28;20096;-64
2021/09/12 12:32:26;;;;;;;;;;;;;;;;;;5052123;28;20002;-64
2021/09/12 12:34:53;;;;;;;;;;;;;;;;;;5051777;28;20377;-64
2021/09/12 12:37:20;;;;;;;;;;;;;;;;;;5051856;28;20008;-64
2021/09/12 12:39:47;;;;;;;;;;;;;;;;;;5051819;28;20009;-64
2021/09/12 12:42:14;;;;;;;;;;;;;;;;;;5051698;28;20001;-65
2021/09/12 12:44:41;;;;;;;;;;;;;;;;;;5051637;28;20504;-63
2021/09/12 12:47:08;;;;;;;;;;;;;;;;;;5052036;28;20009;-64
2021/09/12 12:49:35;;;;;;;;;;;;;;;;;;5052076;28;20001;-63
2021/09/12 12:52:02;;;;;;;;;;;;;;;;;;5051303;28;20594;-64
2021/09/12 12:54:31;;;;;;;;;;;;;;;;;;5051729;28;20040;-64
2021/09/12 12:56:58;;;;;;;;;;;;;;;;;;5051850;28;20002;-64
2021/09/12 12:59:24;;;;;;;;;;;;;;;;;;5052188;28;20001;-65
2021/09/12 13:01:51;;;;;;;;;;;;;;;;;;5051712;28;20017;-64
2021/09/12 13:04:18;;;;;;;;;;;;;;;;;;5051648;28;20022;-64
2021/09/12 13:06:45;;;;;;;;;;;;;;;;;;5051644;28;20024;-63
2021/09/12 13:09:12;;;;;;;;;;;;;;;;;;5051718;28;20005;-65
2021/09/12 13:11:39;;;;;;;;;;;;;;;;;;5051449;28;20009;-65
2021/09/12 13:14:06;;;;;;;;;;;;;;;;;;5051391;28;20523;-66
2021/09/12 13:16:33;;;;;;;;;;;;;;;;;;5051694;28;20017;-64
2021/09/12 13:19:00;;;;;;;;;;;;;;;;;;5053764;28;20009;-63
2021/09/12 13:21:27;;;;;;;;;;;;;;;;;;5055444;28;20001;-65
2021/09/12 13:23:53;;;;;;;;;;;;;;;;;;5055604;28;20024;-65
2021/09/12 13:26:20;;;;;;;;;;;;;;;;;;5055515;28;20380;-65
2021/09/12 13:28:47;;;;;;;;;;;;;;;;;;5055515;28;20009;-66
2021/09/12 13:31:14;;;;;;;;;;;;;;;;;;5055563;28;20001;-65
2021/09/12 13:33:41;;;;;;;;;;;;;;;;;;5055117;28;20500;-65
2021/09/12 13:36:08;;;;;;;;;;;;;;;;;;5055259;28;20020;-66
2021/09/12 13:38:35;;;;;;;;;;;;;;;;;;5055102;28;20001;-65
2021/09/12 13:41:02;;;;;;;;;;;;;;;;;;5055312;28;20372;-66
2021/09/12 13:43:30;;;;;;;;;;;;;;;;;;5055308;28;20036;-65
2021/09/12 13:45:57;;;;;;;;;;;;;;;;;;5055336;28;20010;-65
2021/09/12 13:48:24;;;;;;;;;;;;;;;;;;5054905;28;20059;-65
2021/09/12 13:50:51;;;;;;;;;;;;;;;;;;5054790;28;20460;-65
2021/09/12 13:53:18;;;;;;;;;;;;;;;;;;5055308;28;20018;-65
2021/09/12 13:55:45;;;;;;;;;;;;;;;;;;5055074;28;20013;-65
2021/09/12 13:58:12;;;;;;;;;;;;;;;;;;5054685;28;20017;-66
2021/09/12 14:00:39;;;;;;;;;;;;;;;;;;5054939;28;20009;-65
2021/09/12 14:03:06;;;;;;;;;;;;;;;;;;5054665;28;20028;-65
2021/09/12 14:05:33;;;;;;;;;;;;;;;;;;5054898;28;20006;-65
2021/09/12 14:08:00;;;;;;;;;;;;;;;;;;5054997;28;20016;-65
2021/09/12 14:10:27;;;;;;;;;;;;;;;;;;5054448;28;20001;-65
2021/09/12 14:12:53;;;;;;;;;;;;;;;;;;5054813;28;20024;-65
2021/09/12 14:15:20;;;;;;;;;;;;;;;;;;5054453;28;20013;-65
2021/09/12 14:17:47;;;;;;;;;;;;;;;;;;5054665;28;20001;-65
2021/09/12 14:20:15;;;;;;;;;;;;;;;;;;5054217;28;20378;-66
2021/09/12 14:22:41;;;;;;;;;;;;;;;;;;5054520;28;20056;-65
2021/09/12 14:25:08;;;;;;;;;;;;;;;;;;5054411;28;20001;-65
2021/09/12 14:27:35;;;;;;;;;;;;;;;;;;5054793;28;20008;-65
2021/09/12 14:30:02;;;;;;;;;;;;;;;;;;5054263;28;20005;-66
2021/09/12 14:32:29;;;;;;;;;;;;;;;;;;5054023;28;20001;-65
2021/09/12 14:34:56;;;;;;;;;;;;;;;;;;5054165;28;20017;-65
2021/09/12 14:37:23;;;;;;;;;;;;;;;;;;5054026;28;20487;-65
2021/09/12 14:39:50;;;;;;;;;;;;;;;;;;5054519;28;20002;-65
2021/09/12 14:42:17;;;;;;;;;;;;;;;;;;5054246;28;20025;-65
2021/09/12 14:44:44;;;;;;;;;;;;;;;;;;5053905;28;20025;-65
2021/09/12 14:47:11;;;;;;;;;;;;;;;;;;5054059;28;20004;-66
2021/09/12 14:49:37;;;;;;;;;;;;;;;;;;5053927;28;20008;-65
2021/09/12 14:52:06;;;;;;;;;;;;;;;;;;5053854;28;20368;-65
2021/09/12 14:54:33;;;;;;;;;;;;;;;;;;5054091;28;20021;-66
2021/09/12 14:57:00;;;;;;;;;;;;;;;;;;5053941;28;20017;-65
2021/09/12 14:59:27;;;;;;;;;;;;;;;;;;5053823;28;20008;-65
2021/09/12 15:01:53;;;;;;;;;;;;;;;;;;5053807;28;20002;-65
2021/09/12 15:04:23;;;;;;;;;;;;;;;;;;5053684;28;20044;-65
2021/09/12 15:06:50;;;;;;;;;;;;;;;;;;5053764;28;20005;-65
2021/09/12 15:09:17;;;;;;;;;;;;;;;;;;5053756;28;20009;-65
2021/09/12 15:11:44;;;;;;;;;;;;;;;;;;5053411;28;20008;-65
2021/09/12 15:14:10;;;;;;;;;;;;;;;;;;5053737;28;20018;-65
2021/09/12 15:16:37;;;;;;;;;;;;;;;;;;5053252;28;20018;-65
2021/09/12 15:19:04;;;;;;;;;;;;;;;;;;5053737;28;20001;-65
2021/09/12 15:21:31;;;;;;;;;;;;;;;;;;5053045;28;20025;-67
2021/09/12 15:23:58;;;;;;;;;;;;;;;;;;5053384;28;20017;-65
2021/09/12 15:26:25;;;;;;;;;;;;;;;;;;5053239;28;20052;-65
2021/09/12 15:28:53;;;;;;;;;;;;;;;;;;5053304;28;20013;-65
2021/09/12 15:31:20;;;;;;;;;;;;;;;;;;5052953;28;20028;-65
2021/09/12 15:33:47;;;;;;;;;;;;;;;;;;5052840;28;20489;-65
2021/09/12 15:36:14;;;;;;;;;;;;;;;;;;5053102;28;20025;-66
2021/09/12 15:38:41;;;;;;;;;;;;;;;;;;5053165;28;20001;-65
2021/09/12 15:41:07;;;;;;;;;;;;;;;;;;5052355;28;20008;-65
2021/09/12 15:43:34;;;;;;;;;;;;;;;;;;5052551;28;20017;-65
2021/09/12 15:46:01;;;;;;;;;;;;;;;;;;5052890;28;20472;-65
2021/09/12 15:48:28;;;;;;;;;;;;;;;;;;5052944;28;20002;-65
2021/09/12 15:50:55;;;;;;;;;;;;;;;;;;5052872;28;20001;-65
2021/09/12 15:53:22;;;;;;;;;;;;;;;;;;5052576;28;20622;-66
2021/09/12 15:55:49;;;;;;;;;;;;;;;;;;5052404;28;20023;-65
2021/09/12 15:58:16;;;;;;;;;;;;;;;;;;5052868;28;20002;-65
2021/09/12 16:00:43;;;;;;;;;;;;;;;;;;5052546;28;20012;-65
2021/09/12 16:03:10;;;;;;;;;;;;;;;;;;5052556;28;20021;-65
2021/09/12 16:05:37;;;;;;;;;;;;;;;;;;5052643;28;20338;-65
2021/09/12 16:08:04;;;;;;;;;;;;;;;;;;5052278;28;20012;-63
2021/09/12 16:10:31;;;;;;;;;;;;;;;;;;5052626;28;20001;-64
2021/09/12 16:12:57;;;;;;;;;;;;;;;;;;5052638;28;20356;-64
2021/09/12 16:15:24;;;;;;;;;;;;;;;;;;5052749;28;20014;-67
2021/09/12 16:17:51;;;;;;;;;;;;;;;;;;5052682;28;20001;-65
2021/09/12 16:20:18;;;;;;;;;;;;;;;;;;5052244;28;20048;-66
2021/09/12 16:22:45;;;;;;;;;;;;;;;;;;5052266;28;20025;-66
2021/09/12 16:25:12;;;;;;;;;;;;;;;;;;5052222;28;20002;-66
2021/09/12 16:27:39;;;;;;;;;;;;;;;;;;5052313;28;20006;-65
2021/09/12 16:30:06;;;;;;;;;;;;;;;;;;5052329;28;20001;-66
2021/09/12 16:32:34;;;;;;;;;;;;;;;;;;5051797;28;20013;-67
2021/09/12 16:35:01;;;;;;;;;;;;;;;;;;5052550;28;20065;-65
2021/09/12 16:37:28;;;;;;;;;;;;;;;;;;5052311;28;20018;-65
2021/09/12 16:39:55;;;;;;;;;;;;;;;;;;5052231;28;20088;-65
2021/09/12 16:42:21;;;;;;;;;;;;;;;;;;5051665;28;20008;-65